Weather at Maine Prairie Airport

Public forecast

Using degrees Fahrenheit for public forecast. Weather courtesy of forecast.io.

Closest aviation weather report (METAR) to Maine Prairie Airport

Closest report is Nut Tree Airport, 6.5 nm (12.0 km) W. Retrieved 2020/11/30 13:53 UTC (2 hours ago):

KVCB 301353Z AUTO 00000KT 10SM CLR 01/M02 A3029 RMK AO2 SLP256 T00061017

Closest aviation forecast (TAF) to Maine Prairie Airport

Closest forecast is Travis Air Force Base, 8.6 nm (16.0 km) SW. Retrieved 2020/11/30 11:03 UTC (4 hours ago):

TAF KSUU 301100Z 3011/0117 VRB06KT 9999 FEW200 QNH3015INS TX20/3022Z TNM01/3013Z